Time;durP1;ratioP1;P1;durP2;ratioP2;P2;SDS_P1;SDS_P2;PMS_P1;PMS_P2;Temp;Humidity;BMP_temperature;BMP_pressure;BME280_temperature;BME280_humidity;BME280_pressure;Samples;Min_cycle;Max_cycle;Signal;HPM_P1;HPM_P2
2022/05/20 00:00:22;;;;;;;21.77;19.67;;;;;;;14.00;97.19;102220.16;5053361;28;19960;-35
2022/05/20 00:02:48;;;;;;;23.08;20.90;;;;;;;13.93;97.78;102213.94;5052531;28;20029;-35
2022/05/20 00:05:17;;;;;;;21.88;19.77;;;;;;;14.01;97.65;102216.41;5053084;28;20428;-35
2022/05/20 00:07:42;;;;;;;22.25;20.13;;;;;;;13.94;97.70;102218.31;5053314;28;20037;-36
2022/05/20 00:10:08;;;;;;;;;;;;;;;14.15;95.60;102215.25;5052802;28;20039;-35
2022/05/20 00:12:34;;;;;;;20.23;18.45;;;;;;;13.91;97.30;102216.06;5053948;28;19967;-35
2022/05/20 00:14:59;;;;;;;;;;;;;;;14.09;95.49;102216.13;5056991;28;20029;-35
2022/05/20 00:17:24;;;;;;;21.77;19.77;;;;;;;13.85;97.08;102206.06;5056185;28;19928;-35
2022/05/20 00:19:49;;;;;;;22.23;20.13;;;;;;;13.90;97.58;102211.66;5057086;28;20291;-35
2022/05/20 00:22:15;;;;;;;22.50;20.40;;;;;;;13.89;97.56;102213.53;5056748;28;20287;-35
2022/05/20 00:25:45;;;;;;;;;;;;;;;14.07;95.65;102220.13;5056570;28;20025;-35
2022/05/20 00:27:25;;;;;;;22.25;18.13;;;;;;;13.91;96.76;102216.06;5056149;28;19912;-35
2022/05/20 00:29:51;;;;;;;21.75;19.50;;;;;;;13.81;97.60;102208.41;5056235;28;20108;-35
2022/05/20 00:32:16;;;;;;;21.83;19.77;;;;;;;13.67;97.19;102186.94;5056646;28;20112;-35
2022/05/20 00:34:41;;;;;;;;;;;;;;;14.00;95.80;102209.28;5057009;28;20029;-35
2022/05/20 00:37:07;;;;;;;19.60;17.80;;;;;;;13.84;96.35;102209.81;5056217;28;19917;-35
2022/05/20 00:39:33;;;;;;;19.47;17.57;;;;;;;13.78;95.38;102211.53;5056763;28;20279;-35
2022/05/20 00:41:58;;;;;;;;;;;;;;;13.96;94.78;102204.50;5056367;28;20044;-35
2022/05/20 00:44:23;;;;;;;17.17;15.67;;;;;;;13.73;95.46;102205.09;5056163;28;20010;-35
2022/05/20 00:46:48;;;;;;;;;;;;;;;13.90;94.50;102208.94;5056512;28;20074;-35
2022/05/20 00:49:15;;;;;;;16.83;15.23;;;;;;;13.62;95.31;102210.19;5056042;28;19909;-35
2022/05/20 00:51:49;;;;;;;16.58;15.02;;;;;;;13.50;96.37;102203.75;5056213;28;20025;-35
2022/05/20 00:54:26;;;;;;;17.92;16.13;;;;;;;13.47;97.01;102203.34;5055922;28;20029;-35
2022/05/20 00:56:55;;;;;;;;;;;;;;;13.70;95.11;102205.53;5056567;28;20029;-35
2022/05/20 00:59:25;;;;;;;15.73;14.23;;;;;;;13.45;95.92;102202.75;5056612;28;19916;-35
2022/05/20 01:01:54;;;;;;;16.73;15.10;;;;;;;13.40;96.36;102193.34;5056079;28;20036;-35
2022/05/20 01:04:21;;;;;;;15.52;14.18;;;;;;;13.38;96.71;102197.34;5055490;28;20397;-35
2022/05/20 01:06:47;;;;;;;14.70;13.48;;;;;;;13.33;96.47;102200.72;5055770;28;20112;-35
2022/05/20 01:09:12;;;;;;;14.98;13.77;;;;;;;13.31;96.77;102199.25;5055597;28;20448;-35
2022/05/20 01:11:39;;;;;;;15.80;14.40;;;;;;;13.20;96.72;102194.47;5056205;28;20039;-35
2022/05/20 01:14:05;;;;;;;53.80;19.05;;;;;;;13.03;98.01;102197.69;5055276;28;20263;-35
2022/05/20 01:16:32;;;;;;;20.05;18.15;;;;;;;13.12;98.50;102201.81;5055910;28;20029;-35
2022/05/20 01:18:57;;;;;;;34.13;20.90;;;;;;;12.80;98.88;102165.59;5055152;28;20076;-35
2022/05/20 01:21:23;;;;;;;20.70;18.60;;;;;;;13.04;98.78;102201.22;5056076;28;20076;-35
2022/05/20 01:23:48;;;;;;;19.67;17.77;;;;;;;13.06;98.95;102197.22;5054390;28;20268;-35
2022/05/20 01:26:14;;;;;;;21.48;19.20;;;;;;;13.05;98.63;102195.56;5055438;28;20035;-35
2022/05/20 01:28:40;;;;;;;20.20;17.95;;;;;;;13.00;98.37;102197.28;5055474;28;20058;-35
2022/05/20 01:31:09;;;;;;;19.02;17.13;;;;;;;13.08;98.25;102195.16;5055204;28;20029;-35
2022/05/20 01:33:49;;;;;;;19.48;17.67;;;;;;;13.04;98.54;102193.09;5055120;28;20029;-35
2022/05/20 01:36:18;;;;;;;19.08;17.27;;;;;;;13.01;98.69;102196.22;5055359;28;20031;-35
2022/05/20 01:38:43;;;;;;;18.90;17.13;;;;;;;13.02;98.94;102184.31;5054725;28;20033;-35
2022/05/20 01:41:11;;;;;;;;;;;;;;;13.23;97.49;102185.94;5055439;28;20396;-35
2022/05/20 01:43:42;;;;;;;16.80;15.30;;;;;;;13.01;98.53;102186.19;5054959;28;19944;-35
2022/05/20 01:46:54;;;;;;;17.85;15.90;;;;;;;13.01;99.07;102178.03;5053942;28;20115;-35
2022/05/20 01:49:34;;;;;;;16.38;14.98;;;;;;;12.92;99.50;102173.06;5012828;28;20037;-36
2022/05/20 01:52:37;;;;;;;18.23;14.73;;;;;;;12.89;99.75;102177.06;5012945;28;20069;-35
2022/05/20 01:55:12;;;;;;;18.48;14.32;;;;;;;12.75;100.00;102159.13;5013162;28;20026;-36
2022/05/20 01:58:00;;;;;;;18.00;13.97;;;;;;;12.75;100.00;102156.41;5013296;28;20080;-36
2022/05/20 02:00:26;;;;;;;;;;;;;;;12.92;98.77;102171.19;4997425;28;20441;-36
2022/05/20 02:03:03;;;;;;;30.90;13.65;;;;;;;12.66;100.00;102163.97;5012473;28;19980;-35
2022/05/20 02:05:31;;;;;;;;;;;;;;;12.82;99.23;102174.34;5013497;28;20065;-37
2022/05/20 02:08:02;;;;;;;25.17;14.45;;;;;;;12.53;100.00;102172.13;5012465;28;20002;-35
2022/05/20 02:11:07;;;;;;;24.27;15.40;;;;;;;12.58;100.00;102178.56;5012404;28;20038;-35
2022/05/20 02:13:36;;;;;;;20.20;14.48;;;;;;;12.48;100.00;102178.19;5013050;28;20034;-36
2022/05/20 02:16:24;;;;;;;48.20;16.15;;;;;;;12.42;100.00;102162.75;5012414;28;20034;-36
2022/05/20 02:19:08;;;;;;;33.15;15.60;;;;;;;12.27;100.00;102151.28;5011989;28;20542;-36
2022/05/20 02:21:38;;;;;;;50.15;16.17;;;;;;;12.24;100.00;102165.28;5012169;28;20042;-36
2022/05/20 02:24:08;;;;;;;54.30;16.45;;;;;;;12.16;100.00;102162.78;5022845;28;20075;-36
2022/05/20 02:26:40;;;;;;;49.15;15.93;;;;;;;12.08;100.00;102152.97;5054509;28;20028;-36
2022/05/20 02:29:23;;;;;;;38.95;14.82;;;;;;;12.16;100.00;102155.50;5054070;28;20029;-36
2022/05/20 02:32:08;;;;;;;82.60;17.17;;;;;;;12.07;100.00;102154.84;5054208;28;20037;-35
2022/05/20 02:34:34;;;;;;;85.88;17.02;;;;;;;11.96;100.00;102158.19;5054014;28;20033;-35
2022/05/20 02:37:01;;;;;;;;;;;;;;;12.22;100.00;102161.94;5054732;28;20115;-37
2022/05/20 02:39:26;;;;;;;15.23;13.52;;;;;;;12.19;100.00;102160.47;5053611;28;20384;-35
2022/05/20 02:41:53;;;;;;;57.85;16.48;;;;;;;12.13;100.00;102158.59;5053769;28;20032;-35
2022/05/20 02:44:19;;;;;;;37.30;16.13;;;;;;;12.13;100.00;102158.59;5053445;28;20033;-36
2022/05/20 02:46:47;;;;;;;50.37;17.43;;;;;;;12.07;100.00;102154.84;5054493;28;20151;-35
2022/05/20 02:49:12;;;;;;;36.92;16.92;;;;;;;12.05;100.00;102148.81;5053545;28;20826;-35
2022/05/20 02:51:37;;;;;;;27.73;16.25;;;;;;;12.04;100.00;102147.13;5053559;28;20159;-35
2022/05/20 02:54:04;;;;;;;42.70;17.03;;;;;;;12.05;100.00;102151.53;5053487;28;20032;-35
2022/05/20 02:56:30;;;;;;;44.13;17.52;;;;;;;11.99;100.00;102149.63;5053645;28;20735;-35
2022/05/20 03:04:24;;;;;;;40.22;17.30;;;;;;;12.14;100.00;102148.59;5053323;28;20036;-35
2022/05/20 03:06:51;;;;;;;57.25;17.05;;;;;;;12.16;100.00;102147.34;5053783;28;20029;-39
2022/05/20 03:09:19;;;;;;;43.25;16.75;;;;;;;12.14;100.00;102143.16;5053427;28;20072;-36
2022/05/20 03:11:45;;;;;;;70.47;18.25;;;;;;;12.00;100.00;102140.44;5053398;28;20033;-35
2022/05/20 03:14:13;;;;;;;48.40;17.42;;;;;;;12.01;100.00;102144.84;5052868;28;20098;-35
2022/05/20 03:16:39;;;;;;;35.40;15.95;;;;;;;12.04;100.00;102133.56;5053118;28;20029;-35
2022/05/20 03:19:06;;;;;;;50.78;17.15;;;;;;;12.11;100.00;102141.72;5053000;28;20044;-35
2022/05/20 03:21:32;;;;;;;46.08;17.17;;;;;;;12.05;100.00;102140.69;5053257;28;20116;-35
2022/05/20 03:24:02;;;;;;;35.40;17.38;;;;;;;12.01;100.00;102139.44;5052952;28;20060;-35
2022/05/20 03:26:29;;;;;;;42.47;17.23;;;;;;;11.96;100.00;102141.09;5052938;28;20407;-35
2022/05/20 03:28:55;;;;;;;38.25;16.92;;;;;;;11.98;100.00;102142.56;5053471;28;20108;-35
2022/05/20 03:31:20;;;;;;;;;;;;;;;12.17;100.00;102146.31;5053474;28;20060;-35
2022/05/20 03:33:46;;;;;;;78.25;16.42;;;;;;;11.99;100.00;102129.81;5052935;28;19960;-35
2022/05/20 03:36:12;;;;;;;59.53;17.17;;;;;;;12.16;100.00;102135.69;5053495;28;20024;-35
2022/05/20 03:38:38;;;;;;;24.58;14.68;;;;;;;12.19;100.00;102144.19;5052902;28;20406;-35
2022/05/20 03:41:04;;;;;;;52.65;14.43;;;;;;;12.16;100.00;102149.22;5052764;28;20033;-35
2022/05/20 03:43:30;;;;;;;41.47;13.70;;;;;;;12.14;100.00;102149.41;5052843;28;20255;-35
2022/05/20 03:45:55;;;;;;;20.15;13.13;;;;;;;12.09;100.00;102147.34;5053632;28;20075;-35
2022/05/20 03:48:21;;;;;;;39.10;14.50;;;;;;;12.06;100.00;102155.06;5055224;28;20525;-35
2022/05/20 03:50:46;;;;;;;27.40;14.15;;;;;;;12.08;100.00;102153.81;5057229;28;20473;-35
2022/05/20 03:53:12;;;;;;;70.45;15.40;;;;;;;11.97;100.00;102153.63;5056775;28;20124;-35
2022/05/20 03:55:38;;;;;;;61.83;15.10;;;;;;;11.87;100.00;102145.91;5055846;28;20021;-35
2022/05/20 03:58:03;;;;;;;100.15;17.05;;;;;;;11.71;100.00;102151.66;5056709;28;20108;-34
2022/05/20 04:00:28;;;;;;;70.15;16.52;;;;;;;11.57;100.00;102132.72;5056515;28;20500;-34
2022/05/20 04:02:54;;;;;;;51.97;15.75;;;;;;;11.68;100.00;102143.97;5056430;28;20036;-35
2022/05/20 04:05:20;;;;;;;75.17;16.97;;;;;;;11.65;100.00;102133.53;5057000;28;20095;-35
2022/05/20 04:07:45;;;;;;;59.78;15.70;;;;;;;11.60;100.00;102115.19;5056432;28;20748;-35
2022/05/20 04:10:11;;;;;;;50.77;16.87;;;;;;;11.62;100.00;102101.44;5056596;28;20032;-35
2022/05/20 04:12:41;;;;;;;61.70;17.20;;;;;;;11.51;100.00;102092.88;5056313;28;20603;-35
2022/05/20 04:15:10;;;;;;;60.17;18.23;;;;;;;11.59;100.00;102106.22;5056572;28;20035;-35
2022/05/20 04:17:35;;;;;;;48.15;18.13;;;;;;;11.65;100.00;102099.13;5056654;28;20032;-35
2022/05/20 04:20:01;;;;;;;38.05;17.83;;;;;;;11.66;100.00;102099.97;5056666;28;20049;-35
2022/05/20 04:22:35;;;;;;;51.38;19.00;;;;;;;11.58;100.00;102101.84;5056517;28;20086;-35
2022/05/20 04:25:01;;;;;;;64.85;19.08;;;;;;;11.46;100.00;102105.38;5055955;28;20492;-35
2022/05/20 04:27:27;;;;;;;45.55;17.38;;;;;;;11.52;100.00;102102.69;5056205;28;20032;-35
2022/05/20 04:29:53;;;;;;;43.88;18.95;;;;;;;11.56;100.00;102081.41;5056171;28;20049;-35
2022/05/20 04:32:18;;;;;;;;;;;;;;;11.75;100.00;102093.31;5056947;28;20112;-35
2022/05/20 04:34:44;;;;;;;52.47;20.13;;;;;;;11.62;100.00;102091.44;5056214;28;19960;-35
2022/05/20 04:37:09;;;;;;;29.00;19.10;;;;;;;11.75;100.00;102104.16;5056102;28;20282;-35
2022/05/20 04:39:35;;;;;;;49.53;21.10;;;;;;;11.75;100.00;102104.16;5056152;28;20033;-35
2022/05/20 04:47:30;;;;;;;46.97;23.50;;;;;;;11.89;100.00;102097.72;5055676;28;20260;-35
2022/05/20 04:49:56;;;;;;;90.22;23.75;;;;;;;12.01;100.00;102106.06;5055962;28;20059;-35
2022/05/20 04:52:21;;;;;;;116.68;25.35;;;;;;;11.82;100.00;102105.88;5056156;28;20056;-35
2022/05/20 04:54:50;;;;;;;61.72;23.48;;;;;;;11.98;100.00;102117.31;5055596;28;20520;-35
2022/05/20 04:57:37;;;;;;;40.75;22.52;;;;;;;12.16;100.00;102124.81;5056220;28;20362;-35
2022/05/20 05:00:08;;;;;;;27.77;20.92;;;;;;;12.29;100.00;102130.22;5054289;28;20455;-35
2022/05/20 05:02:35;;;;;;;44.47;21.92;;;;;;;12.22;100.00;102132.13;5074470;28;20498;-35
2022/05/20 05:05:00;;;;;;;37.45;21.10;;;;;;;12.24;100.00;102121.88;5075790;28;20379;-35
2022/05/20 05:07:26;;;;;;;34.20;20.80;;;;;;;12.29;100.00;102119.38;5074622;28;20056;-35
2022/05/20 05:09:53;;;;;;;23.90;21.60;;;;;;;12.45;100.00;102118.09;5076399;28;20024;-35
2022/05/20 05:12:19;;;;;;;38.50;21.45;;;;;;;12.47;100.00;102127.69;5076397;28;20032;-35
2022/05/20 05:14:47;;;;;;;37.35;21.58;;;;;;;12.44;100.00;102119.13;5076045;28;20040;-35
2022/05/20 05:18:09;;;;;;;26.40;22.42;;;;;;;12.48;100.00;102117.66;5075419;28;20107;-35
2022/05/20 05:20:07;;;;;;;24.95;22.77;;;;;;;12.69;100.00;102135.53;5075957;28;20457;-36
2022/05/20 05:22:33;;;;;;;24.15;21.85;;;;;;;12.77;100.00;102124.47;5075467;28;20107;-35
2022/05/20 05:24:59;;;;;;;24.77;22.55;;;;;;;12.91;100.00;102126.06;5074057;28;20124;-36
2022/05/20 05:27:25;;;;;;;24.00;21.92;;;;;;;13.05;100.00;102116.81;5075634;28;20032;-35
2022/05/20 05:29:50;;;;;;;22.83;20.83;;;;;;;13.15;100.00;102113.63;5074993;28;20028;-35
2022/05/20 05:32:16;;;;;;;24.20;21.97;;;;;;;13.25;100.00;102107.78;5075286;28;20029;-35
2022/05/20 05:34:41;;;;;;;25.15;22.55;;;;;;;13.53;100.00;102121.81;5074854;28;20031;-35
2022/05/20 05:37:07;;;;;;;26.38;23.83;;;;;;;13.54;100.00;102101.72;5075711;28;20116;-35
2022/05/20 05:39:32;;;;;;;26.50;24.08;;;;;;;13.62;100.00;102101.47;5075300;28;20028;-35
2022/05/20 05:42:00;;;;;;;27.95;25.33;;;;;;;13.59;100.00;102106.50;5075084;28;20109;-35
2022/05/20 05:44:26;;;;;;;27.58;24.95;;;;;;;13.65;100.00;102098.28;5074908;28;20529;-35
2022/05/20 05:46:51;;;;;;;;;;;;;;;13.79;100.00;102098.19;5075226;28;20056;-35
2022/05/20 05:49:16;;;;;;;25.20;22.90;;;;;;;13.79;100.00;102099.00;5075254;28;19908;-35
2022/05/20 05:51:42;;;;;;;24.17;21.88;;;;;;;13.85;100.00;102092.69;5074754;28;20024;-35
2022/05/20 05:54:07;;;;;;;25.90;23.08;;;;;;;13.88;100.00;102080.53;5074654;28;20107;-35
2022/05/20 05:56:33;;;;;;;24.35;22.02;;;;;;;13.91;100.00;102082.81;5074739;28;20021;-35
2022/05/20 05:58:58;;;;;;;25.52;22.95;;;;;;;14.00;100.00;102088.78;5075431;28;20025;-35
2022/05/20 06:01:23;;;;;;;24.52;20.10;;;;;;;14.04;100.00;102095.44;5074409;28;20033;-35
2022/05/20 06:03:49;;;;;;;22.67;19.88;;;;;;;14.21;100.00;102093.00;5074859;28;20052;-35
2022/05/20 06:06:14;;;;;;;19.10;17.08;;;;;;;14.29;100.00;102076.38;5075094;28;20035;-35
2022/05/20 06:08:40;;;;;;;;;;;;;;;14.31;100.00;102077.00;5074927;28;20062;-35
2022/05/20 06:11:06;;;;;;;18.97;15.90;;;;;;;14.31;100.00;102085.16;5074524;28;19913;-35
2022/05/20 06:13:32;;;;;;;16.15;14.45;;;;;;;14.49;100.00;102087.88;5074172;28;20337;-35
2022/05/20 06:15:57;;;;;;;;;;;;;;;14.55;98.22;102094.34;5074531;28;20469;-35
2022/05/20 06:18:24;;;;;;;15.03;13.43;;;;;;;14.55;98.88;102078.84;5073877;28;19917;-35
2022/05/20 06:20:49;;;;;;;13.40;12.00;;;;;;;14.68;96.98;102075.94;5074223;28;20311;-35
2022/05/20 06:23:15;;;;;;;13.55;11.30;;;;;;;14.67;94.85;102077.00;5072373;28;20036;-35
2022/05/20 06:25:41;;;;;;;;;;;;;;;14.87;95.90;102084.91;5074240;28;20105;-35
2022/05/20 06:28:11;;;;;;;12.75;10.90;;;;;;;14.95;95.14;102081.06;5073745;28;19923;-35
2022/05/20 06:30:37;;;;;;;13.73;11.65;;;;;;;15.06;93.29;102074.81;5074797;28;20024;-35
2022/05/20 06:33:03;;;;;;;13.35;10.85;;;;;;;15.05;90.60;102066.88;5073643;28;20023;-35
2022/05/20 06:40:56;;;;;;;11.10;8.60;;;;;;;15.17;86.00;102052.22;5074068;28;20051;-35
2022/05/20 06:43:21;;;;;;;;;;;;;;;15.33;88.89;102055.38;5074174;28;20028;-35
2022/05/20 06:45:49;;;;;;;11.35;8.85;;;;;;;15.33;87.03;102039.03;5074233;28;19927;-35
2022/05/20 06:48:15;;;;;;;10.50;9.30;;;;;;;15.53;87.57;102044.16;5073691;28;20058;-35
2022/05/20 06:50:40;;;;;;;;;;;;;;;15.70;89.90;102045.97;5074026;28;20033;-35
2022/05/20 06:53:06;;;;;;;8.63;7.80;;;;;;;15.70;83.32;102048.69;5073452;28;19908;-44
2022/05/20 06:55:32;;;;;;;10.05;7.53;;;;;;;15.64;83.08;102052.38;5074321;28;20420;-36
2022/05/20 06:57:58;;;;;;;10.90;6.75;;;;;;;15.44;76.77;102054.56;5073452;28;20060;-35
2022/05/20 07:00:23;;;;;;;8.23;6.78;;;;;;;15.39;79.06;102032.63;5074291;28;20103;-36
2022/05/20 07:02:48;;;;;;;;;;;;;;;15.59;82.75;102041.31;5073578;28;20044;-36
2022/05/20 07:05:14;;;;;;;8.10;6.70;;;;;;;15.66;81.18;102033.91;5073498;28;19909;-35
2022/05/20 07:07:39;;;;;;;10.45;7.47;;;;;;;15.78;83.13;102020.25;5074208;28;20261;-35
2022/05/20 07:10:05;;;;;;;;;;;;;;;15.98;81.58;102033.53;5073665;28;20469;-35
2022/05/20 07:12:31;;;;;;;9.15;7.43;;;;;;;15.96;78.92;102024.75;5073628;28;19962;-36
2022/05/20 07:14:56;;;;;;;9.18;6.32;;;;;;;15.99;78.20;102027.00;5073071;28;20036;-35
2022/05/20 07:17:22;;;;;;;;;;;;;;;16.01;76.57;102021.31;5073841;28;20027;-36
2022/05/20 07:19:50;;;;;;;9.07;6.47;;;;;;;16.04;80.80;102002.56;5073631;28;20429;-36
2022/05/20 07:22:15;;;;;;;9.20;6.18;;;;;;;16.13;75.15;102012.03;5072916;28;20028;-35
2022/05/20 07:24:43;;;;;;;9.82;7.03;;;;;;;16.21;77.90;102005.38;5073145;28;20082;-35
2022/05/20 07:27:09;;;;;;;8.15;6.72;;;;;;;16.27;77.24;101998.13;5073582;28;20381;-35
2022/05/20 07:29:35;;;;;;;10.95;6.97;;;;;;;16.28;75.90;102002.50;5072742;28;20035;-35
2022/05/20 07:32:00;;;;;;;;;;;;;;;16.31;75.74;101994.69;5074012;28;20384;-35
2022/05/20 07:34:26;;;;;;;9.30;6.80;;;;;;;16.40;76.62;101989.69;5073229;28;19908;-35
2022/05/20 07:36:51;;;;;;;;;;;;;;;16.48;77.02;101989.28;5073085;28;20107;-35
2022/05/20 07:39:16;;;;;;;11.10;7.57;;;;;;;16.53;76.78;101978.47;5073165;28;19958;-35
2022/05/20 07:41:41;;;;;;;;;;;;;;;16.65;76.57;101981.97;5073682;28;20262;-35
2022/05/20 07:44:07;;;;;;;8.33;6.40;;;;;;;16.68;78.12;101986.94;5072985;28;20349;-35
2022/05/20 07:46:32;;;;;;;;;;;;;;;16.81;78.54;101985.84;5072575;28;20611;-35
2022/05/20 07:48:57;;;;;;;7.73;6.30;;;;;;;16.76;74.34;101972.09;5072967;28;19909;-35
2022/05/20 07:51:24;;;;;;;;;;;;;;;16.89;74.07;101980.00;5073876;28;20294;-35
2022/05/20 07:53:56;;;;;;;10.30;6.10;;;;;;;16.89;74.83;101965.53;5072638;28;19908;-36
2022/05/20 07:56:29;;;;;;;9.05;6.60;;;;;;;17.08;73.97;101968.81;5073133;28;20103;-35
2022/05/20 07:59:11;;;;;;;6.53;5.88;;;;;;;17.20;73.05;101962.22;5073276;28;20368;-35
2022/05/20 08:01:40;;;;;;;9.57;6.28;;;;;;;17.23;72.99;101949.97;5073289;28;20036;-35
2022/05/20 08:07:02;;;;;;;8.02;6.05;;;;;;;17.39;72.54;101956.50;5072765;28;20086;-35
2022/05/20 08:09:28;;;;;;;;;;;;;;;17.51;72.84;101962.69;5073090;28;20025;-35
2022/05/20 08:11:53;;;;;;;10.90;6.40;;;;;;;17.47;71.48;101958.81;5072742;28;19908;-35
2022/05/20 08:14:18;;;;;;;;;;;;;;;17.54;71.77;101951.28;5073647;28;20271;-35
2022/05/20 08:16:44;;;;;;;7.03;5.97;;;;;;;17.58;75.04;101941.50;5073216;28;19908;-35
2022/05/20 08:19:09;;;;;;;;;;;;;;;17.74;71.69;101945.31;5073241;28;20488;-35
2022/05/20 08:21:34;;;;;;;8.60;5.10;;;;;;;17.86;71.02;101937.81;5072306;28;19919;-35
2022/05/20 08:24:00;;;;;;;;;;;;;;;17.94;69.15;101939.28;5073252;28;20035;-35
2022/05/20 08:26:25;;;;;;;6.85;6.07;;;;;;;18.02;70.57;101936.09;5072836;28;19916;-35
2022/05/20 08:28:50;;;;;;;;;;;;;;;18.14;70.17;101935.97;5072665;28;20469;-35
2022/05/20 08:31:16;;;;;;;6.87;6.17;;;;;;;18.15;70.99;101929.41;5072799;28;20400;-35
2022/05/20 08:33:42;;;;;;;;;;;;;;;18.27;71.80;101930.09;5074815;28;20313;-35
2022/05/20 08:36:07;;;;;;;9.65;6.30;;;;;;;18.22;70.74;101921.84;5076135;28;20015;-35
2022/05/20 08:38:32;;;;;;;;;;;;;;;18.35;69.73;101915.13;5076528;28;20079;-35
2022/05/20 08:41:00;;;;;;;8.00;6.10;;;;;;;18.24;68.73;101912.28;5075827;28;19913;-35
2022/05/20 08:43:28;;;;;;;8.98;6.95;;;;;;;18.22;68.72;101914.44;5075983;28;20255;-35
2022/05/20 08:45:53;;;;;;;10.05;6.80;;;;;;;18.20;67.98;101904.81;5075911;28;20417;-35
2022/05/20 08:48:19;;;;;;;;;;;;;;;18.32;69.60;101896.50;5076396;28;20070;-35
2022/05/20 08:50:49;;;;;;;10.15;6.97;;;;;;;18.20;69.86;101875.56;5075910;28;19957;-35
2022/05/20 08:53:30;;;;;;;7.82;6.03;;;;;;;18.30;68.73;101869.38;5076406;28;20106;-35
2022/05/20 08:56:08;;;;;;;8.10;6.68;;;;;;;18.42;70.07;101847.31;5076588;28;20126;-35
2022/05/20 08:58:36;;;;;;;10.52;6.75;;;;;;;18.71;70.19;101851.44;5075942;28;20020;-35
2022/05/20 09:01:02;;;;;;;9.35;6.80;;;;;;;18.82;67.62;101843.28;5075679;28;20024;-35
2022/05/20 09:03:28;;;;;;;;;;;;;;;18.95;68.40;101842.84;5075804;28;20397;-35
2022/05/20 09:06:09;;;;;;;8.20;6.73;;;;;;;18.82;66.16;101846.84;5091646;28;19908;-35
2022/05/20 09:08:35;;;;;;;8.07;6.25;;;;;;;18.81;66.73;101841.66;5075341;28;20028;-35
2022/05/20 09:11:02;;;;;;;;;;;;;;;18.98;68.41;101836.84;5076283;28;20437;-35
2022/05/20 09:16:25;;;;;;;7.43;6.60;;;;;;;18.90;66.52;101837.34;5075462;28;20168;-35
2022/05/20 09:19:10;;;;;;;8.85;6.80;;;;;;;19.11;68.61;101844.59;5075204;28;20370;-35
2022/05/20 09:21:44;;;;;;;7.22;6.22;;;;;;;19.20;66.83;101837.53;5075450;28;20047;-35
2022/05/20 09:24:21;;;;;;;7.70;6.90;;;;;;;19.29;67.60;101830.47;5075490;28;20052;-35
2022/05/20 09:26:50;;;;;;;8.98;6.53;;;;;;;19.27;67.71;101826.31;5075232;28;20024;-35
2022/05/20 09:29:28;;;;;;;7.78;6.00;;;;;;;19.20;68.45;101823.84;5075720;28;20108;-35
2022/05/20 09:32:00;;;;;;;6.78;5.43;;;;;;;19.20;65.72;101810.13;5075676;28;20029;-35
2022/05/20 09:34:26;;;;;;;8.30;5.65;;;;;;;19.50;67.87;101798.47;5075031;28;20108;-35
2022/05/20 09:36:57;;;;;;;;;;;;;;;19.71;65.58;101787.59;5075868;28;20116;-35
2022/05/20 09:39:32;;;;;;;6.70;5.45;;;;;;;19.63;66.70;101757.97;5074687;28;19920;-35
2022/05/20 09:42:04;;;;;;;7.60;5.53;;;;;;;19.72;64.70;101775.56;5074316;28;20033;-35
2022/05/20 09:44:37;;;;;;;7.40;5.85;;;;;;;19.59;64.75;101768.63;5074848;28;20055;-35
2022/05/20 09:47:38;;;;;;;7.82;5.07;;;;;;;19.68;65.56;101782.69;5075175;28;20108;-35
2022/05/20 09:50:22;;;;;;;13.55;6.03;;;;;;;19.63;65.16;101775.25;5012641;28;20120;-35
2022/05/20 09:52:58;;;;;;;10.55;5.45;;;;;;;19.49;64.63;101774.06;5013346;28;20026;-35
2022/05/20 09:55:23;;;;;;;6.13;4.95;;;;;;;19.57;65.07;101759.84;5012798;28;20053;-35
2022/05/20 09:57:49;;;;;;;5.35;4.70;;;;;;;19.68;64.88;101756.06;5012809;28;20395;-35
2022/05/20 10:00:32;;;;;;;;;;;;;;;19.87;66.67;101747.34;5012843;28;20486;-35
2022/05/20 10:03:25;;;;;;;5.85;5.22;;;;;;;19.87;66.73;101731.69;5012494;28;19910;-35
2022/05/20 10:05:59;;;;;;;7.05;4.95;;;;;;;19.94;65.07;101710.28;5012614;28;20030;-35
2022/05/20 10:08:34;;;;;;;7.13;4.80;;;;;;;20.08;64.93;101707.00;5012556;28;20100;-35
2022/05/20 10:11:27;;;;;;;8.93;4.72;;;;;;;20.09;64.96;101711.38;5012881;28;20041;-35
2022/05/20 10:14:17;;;;;;;6.68;4.70;;;;;;;20.00;63.04;101705.59;5012594;28;20399;-35
2022/05/20 10:16:53;;;;;;;7.32;4.82;;;;;;;19.88;63.81;101685.84;5012730;28;20109;-35
2022/05/20 10:19:26;;;;;;;;;;;;;;;19.99;65.18;101676.50;5012880;28;20061;-35
2022/05/20 10:22:01;;;;;;;7.70;4.57;;;;;;;20.00;65.73;101664.44;5012992;28;19914;-35
2022/05/20 10:24:47;;;;;;;7.35;5.07;;;;;;;19.81;65.12;101653.16;5012209;28;20030;-35
2022/05/20 10:27:54;;;;;;;8.93;5.20;;;;;;;19.99;65.11;101649.06;5056116;28;20051;-35
2022/05/20 10:33:14;;;;;;;6.30;5.63;;;;;;;20.05;66.63;101636.97;5012319;28;20433;-35
2022/05/20 10:36:11;;;;;;;8.85;5.50;;;;;;;20.09;65.44;101635.34;5012092;28;20514;-35
2022/05/20 10:38:36;;;;;;;8.05;5.70;;;;;;;20.17;66.08;101622.97;5012162;28;20034;-35
2022/05/20 10:41:11;;;;;;;9.27;6.03;;;;;;;20.21;65.22;101608.41;5011814;28;20532;-35
2022/05/20 10:50:22;;;;;;;8.23;6.45;;;;;;;20.20;66.81;101587.53;5012584;28;20525;-35
2022/05/20 10:52:58;;;;;;;9.73;6.78;;;;;;;20.25;67.82;101573.81;5011626;28;20030;-35
2022/05/20 10:55:42;;;;;;;;;;;;;;;20.36;67.89;101558.13;5012268;28;20117;-35
2022/05/20 10:58:08;;;;;;;11.25;6.88;;;;;;;20.26;68.70;101537.00;5011849;28;19968;-36
2022/05/20 11:00:55;;;;;;;8.43;7.47;;;;;;;20.17;67.19;101511.22;5030953;28;20465;-36
2022/05/20 11:03:49;;;;;;;10.27;7.68;;;;;;;20.30;67.65;101499.66;5073756;28;20047;-36
2022/05/20 11:06:46;;;;;;;11.10;7.55;;;;;;;20.38;67.71;101478.19;5073101;28;20029;-36
2022/05/20 11:09:39;;;;;;;11.07;7.50;;;;;;;20.57;68.62;101462.75;5073322;28;20086;-36
2022/05/20 11:12:06;;;;;;;8.25;7.40;;;;;;;20.59;67.48;101452.28;5074159;28;20025;-36
2022/05/20 11:14:37;;;;;;;12.40;7.95;;;;;;;20.60;67.88;101458.63;5073007;28;20468;-36
2022/05/20 11:17:14;;;;;;;8.93;7.10;;;;;;;20.52;67.02;101452.59;5073539;28;20032;-36
2022/05/20 11:19:57;;;;;;;10.25;8.00;;;;;;;20.60;67.67;101453.13;5073294;28;20099;-36
2022/05/20 11:22:48;;;;;;;9.45;7.78;;;;;;;20.55;68.98;101441.06;5073341;28;20079;-36
2022/05/20 11:25:35;;;;;;;10.27;8.23;;;;;;;20.66;68.04;101452.81;5070045;28;20044;-36
2022/05/20 11:28:23;;;;;;;9.07;7.95;;;;;;;20.76;68.26;101449.16;5073428;28;20029;-36
2022/05/20 11:31:15;;;;;;;12.20;8.98;;;;;;;20.76;67.81;101444.50;5073492;28;20028;-36
2022/05/20 11:34:09;;;;;;;12.82;10.00;;;;;;;20.79;67.96;101432.13;5073643;28;20055;-36
2022/05/20 11:37:06;;;;;;;15.40;10.48;;;;;;;20.88;68.74;101416.63;5073851;28;20112;-35
2022/05/20 11:40:06;;;;;;;15.27;10.90;;;;;;;20.72;68.95;101418.69;5073059;28;20020;-35
2022/05/20 11:42:58;;;;;;;13.15;11.60;;;;;;;20.43;69.20;101393.81;5073596;28;20121;-35
2022/05/20 11:45:42;;;;;;;12.40;11.10;;;;;;;20.40;70.23;101410.03;5072746;28;20031;-35
2022/05/20 11:48:38;;;;;;;14.20;12.05;;;;;;;20.28;70.51;101405.72;5073529;28;20035;-35
2022/05/20 11:51:22;;;;;;;14.57;12.65;;;;;;;20.22;70.97;101406.84;5073385;28;20032;-35
2022/05/20 11:54:22;;;;;;;13.73;12.38;;;;;;;20.15;71.50;101392.59;5073806;28;20031;-35
2022/05/20 11:57:01;;;;;;;15.13;13.63;;;;;;;20.04;72.20;101377.28;5011075;28;20458;-35
2022/05/20 11:59:41;;;;;;;15.15;13.05;;;;;;;19.97;73.18;101363.06;5010764;28;20044;-35
2022/05/20 12:02:11;;;;;;;16.13;14.43;;;;;;;19.68;74.00;101349.16;5011354;28;20038;-35
2022/05/20 12:04:39;;;;;;;14.73;13.27;;;;;;;19.74;75.34;101373.56;5011199;28;20060;-35
2022/05/20 12:07:12;;;;;;;16.65;14.95;;;;;;;19.68;75.21;101366.44;5011215;28;20030;-36
2022/05/20 12:09:41;;;;;;;17.23;15.13;;;;;;;19.67;75.01;101356.59;5013828;28;20033;-35